createdAt,value
2019-03-30T00:00:02.097Z,98400.78
2019-03-30T00:02:30.387Z,98398.41
2019-03-30T00:04:58.688Z,98403.20
2019-03-30T00:07:26.980Z,98402.88
2019-03-30T00:09:55.323Z,98403.61
2019-03-30T00:12:23.592Z,98406.47
2019-03-30T00:14:51.891Z,98402.25
2019-03-30T00:17:20.232Z,98398.41
2019-03-30T00:19:48.609Z,98401.27
2019-03-30T00:22:16.888Z,98399.68
2019-03-30T00:24:45.195Z,98391.80
2019-03-30T00:27:13.438Z,98392.60
2019-03-30T00:29:42.063Z,98393.50
2019-03-30T00:32:10.410Z,98391.58
2019-03-30T00:34:38.655Z,98391.91
2019-03-30T00:37:07.015Z,98394.74
2019-03-30T00:39:35.287Z,98390.33
2019-03-30T00:42:03.618Z,98388.21
2019-03-30T00:44:31.881Z,98385.23
2019-03-30T00:47:00.250Z,98386.11
2019-03-30T00:49:28.525Z,98385.72
2019-03-30T00:51:56.782Z,98378.19
2019-03-30T00:54:25.113Z,98380.34
2019-03-30T00:56:53.437Z,98378.44
2019-03-30T00:59:21.721Z,98385.39
2019-03-30T01:01:50.049Z,98381.50
2019-03-30T01:04:18.290Z,98384.90
2019-03-30T01:06:46.667Z,98387.41
2019-03-30T01:09:14.973Z,98385.81
2019-03-30T01:11:43.223Z,98387.05
2019-03-30T01:14:11.511Z,98385.65
2019-03-30T01:16:39.884Z,98383.17
2019-03-30T01:19:10.501Z,98384.80
2019-03-30T01:21:38.748Z,98387.63
2019-03-30T01:24:07.074Z,98380.27
2019-03-30T01:26:35.382Z,98376.92
2019-03-30T01:29:03.680Z,98378.66
2019-03-30T01:31:31.962Z,98379.36
2019-03-30T01:34:00.234Z,98377.44
2019-03-30T01:36:28.499Z,98376.38
2019-03-30T01:38:59.731Z,98372.46
2019-03-30T01:41:28.014Z,98373.89
2019-03-30T01:43:56.430Z,98373.55
2019-03-30T01:46:25.683Z,98378.42
2019-03-30T01:48:53.923Z,98370.80
2019-03-30T01:51:22.176Z,98370.64
2019-03-30T01:53:50.447Z,98368.66
2019-03-30T01:56:18.727Z,98365.02
2019-03-30T01:58:47.205Z,98361.86
2019-03-30T02:01:15.462Z,98371.11
2019-03-30T02:03:43.775Z,98374.47
2019-03-30T02:06:12.041Z,98371.11
2019-03-30T02:08:40.355Z,98367.23
2019-03-30T02:11:08.735Z,98367.80
2019-03-30T02:13:36.996Z,98361.98
2019-03-30T02:16:05.278Z,98366.07
2019-03-30T02:18:33.600Z,98365.56
2019-03-30T02:21:01.895Z,98356.19
2019-03-30T02:23:30.268Z,98357.59
2019-03-30T02:25:58.570Z,98355.78
2019-03-30T02:28:26.844Z,98359.00
2019-03-30T02:30:58.251Z,98359.91
2019-03-30T02:33:26.650Z,98366.28
2019-03-30T02:35:55.084Z,98363.08
2019-03-30T02:38:23.355Z,98367.37
2019-03-30T02:40:51.659Z,98369.47
2019-03-30T02:43:20.004Z,98369.14
2019-03-30T02:45:48.279Z,98393.14
2019-03-30T02:48:16.579Z,98362.46
2019-03-30T02:50:50.653Z,98358.75
2019-03-30T02:53:18.168Z,98363.04
2019-03-30T02:55:46.579Z,98360.77
2019-03-30T02:58:14.875Z,98353.50
2019-03-30T03:00:43.263Z,98356.70
2019-03-30T03:03:11.515Z,98358.63
2019-03-30T03:05:39.789Z,98349.03
2019-03-30T03:08:08.046Z,98344.96
2019-03-30T03:10:36.430Z,98346.89
2019-03-30T03:13:04.836Z,98342.27
2019-03-30T03:15:33.208Z,98344.23
2019-03-30T03:18:01.680Z,98341.06
2019-03-30T03:20:29.967Z,98337.01
2019-03-30T03:22:58.290Z,98336.89
2019-03-30T03:25:26.569Z,98337.06
2019-03-30T03:27:54.945Z,98333.89
2019-03-30T03:30:23.280Z,98338.14
2019-03-30T03:32:51.552Z,98336.21
2019-03-30T03:35:19.828Z,98335.88
2019-03-30T03:37:48.079Z,98330.39
2019-03-30T03:40:18.079Z,98329.33
2019-03-30T03:42:46.393Z,98341.22
2019-03-30T03:45:14.697Z,98335.02
2019-03-30T03:47:42.971Z,98335.36
2019-03-30T03:50:14.545Z,98331.47
2019-03-30T03:52:42.853Z,98336.99
2019-03-30T03:55:11.128Z,98336.65
2019-03-30T03:57:40.895Z,98340.20
2019-03-30T04:00:09.280Z,98343.20
2019-03-30T04:02:37.586Z,98347.09
2019-03-30T04:05:07.659Z,98350.98
2019-03-30T04:07:35.915Z,98356.68
2019-03-30T04:10:05.080Z,98350.69
2019-03-30T04:12:33.353Z,98351.06
2019-03-30T04:15:01.637Z,98355.34
2019-03-30T04:17:29.901Z,98359.75
2019-03-30T04:19:58.212Z,98359.03
2019-03-30T04:22:26.475Z,98356.89
2019-03-30T04:24:56.118Z,98361.86
2019-03-30T04:27:24.387Z,98364.89
2019-03-30T04:29:52.613Z,98367.20
2019-03-30T04:32:20.873Z,98361.57
2019-03-30T04:34:52.015Z,98358.73
2019-03-30T04:37:20.207Z,98366.55
2019-03-30T04:39:48.470Z,98362.69
2019-03-30T04:42:16.722Z,98367.30
2019-03-30T04:47:48.952Z,98370.64
2019-03-30T04:50:17.207Z,98365.34
2019-03-30T04:52:50.790Z,98369.41
2019-03-30T04:55:19.128Z,98371.73
2019-03-30T04:57:49.758Z,98379.33
2019-03-30T05:00:17.368Z,98371.55
2019-03-30T05:02:48.477Z,98370.47
2019-03-30T05:05:16.749Z,98364.80
2019-03-30T05:07:45.190Z,98371.18
2019-03-30T05:10:13.525Z,98378.09
2019-03-30T05:12:41.880Z,98371.91
2019-03-30T05:15:10.317Z,98371.02
2019-03-30T05:17:47.455Z,98376.34
2019-03-30T05:20:08.611Z,98383.05
2019-03-30T05:22:36.876Z,98379.16
2019-03-30T05:25:05.576Z,98372.59
2019-03-30T05:27:33.943Z,98377.55
2019-03-30T05:30:02.247Z,98377.22
2019-03-30T05:32:30.559Z,98372.42
2019-03-30T05:34:58.854Z,98373.48
2019-03-30T05:37:34.658Z,98367.63
2019-03-30T05:40:03.165Z,98362.67
2019-03-30T05:42:31.486Z,98363.89
2019-03-30T05:45:31.711Z,98363.00
2019-03-30T05:48:02.715Z,98354.13
2019-03-30T05:50:40.889Z,98357.64
2019-03-30T05:53:18.828Z,98363.13
2019-03-30T05:56:07.727Z,98359.03
2019-03-30T06:01:36.013Z,98369.44
2019-03-30T06:04:04.577Z,98368.50
2019-03-30T06:06:34.742Z,98361.94
2019-03-30T06:09:08.087Z,98368.45
2019-03-30T06:11:49.743Z,98370.50
2019-03-30T06:14:28.707Z,98365.87
2019-03-30T06:17:07.364Z,98363.88
2019-03-30T06:19:35.857Z,97918.92
2019-03-30T06:22:04.382Z,98356.84
2019-03-30T06:24:33.326Z,98354.86
2019-03-30T06:27:04.010Z,98347.52
2019-03-30T06:29:32.152Z,98351.22
2019-03-30T06:32:02.323Z,98350.41
2019-03-30T06:34:30.606Z,98350.84
2019-03-30T06:36:58.942Z,98350.91
2019-03-30T06:39:27.368Z,98353.47
2019-03-30T06:41:55.869Z,98354.08
2019-03-30T06:44:24.304Z,98353.81
2019-03-30T06:46:52.675Z,98354.97
2019-03-30T06:49:23.272Z,98371.80
2019-03-30T06:51:51.688Z,98351.61
2019-03-30T06:54:20.099Z,98349.34
2019-03-30T06:56:48.532Z,98361.87
2019-03-30T06:59:16.918Z,98354.27
2019-03-30T07:01:46.883Z,98348.07
2019-03-30T07:04:15.322Z,98344.59
2019-03-30T07:06:43.795Z,98350.06
2019-03-30T07:09:12.189Z,98350.02
2019-03-30T07:11:42.157Z,98350.16
2019-03-30T07:14:10.504Z,98343.67
2019-03-30T07:16:39.423Z,98346.02
2019-03-30T07:19:07.725Z,98346.56
2019-03-30T07:21:36.013Z,98347.56
2019-03-30T07:24:04.274Z,98346.47
2019-03-30T07:26:32.624Z,98336.48
2019-03-30T07:29:00.969Z,98338.56
2019-03-30T07:31:29.272Z,98336.17
2019-03-30T07:33:59.190Z,98327.39
2019-03-30T07:36:27.465Z,98342.34
2019-03-30T07:38:55.774Z,98337.45
2019-03-30T07:41:24.050Z,98343.59
2019-03-30T07:43:52.309Z,98341.80
2019-03-30T07:46:20.603Z,98337.72
2019-03-30T07:48:48.980Z,98337.85
2019-03-30T07:51:17.392Z,98335.12
2019-03-30T07:53:45.643Z,97323.91
2019-03-30T07:56:14.004Z,98337.84
2019-03-30T07:58:42.321Z,98330.00
2019-03-30T08:01:10.608Z,98322.80
2019-03-30T08:03:38.944Z,98317.04
2019-03-30T08:06:07.300Z,98320.56
2019-03-30T08:08:35.617Z,98317.34
2019-03-30T08:11:03.880Z,98318.77
2019-03-30T08:13:32.651Z,98321.05
2019-03-30T08:16:00.930Z,98322.58
2019-03-30T08:18:29.215Z,98315.70
2019-03-30T08:20:57.558Z,98315.41
2019-03-30T08:23:39.565Z,98314.48
2019-03-30T08:25:55.831Z,98310.48
2019-03-30T08:28:24.104Z,98309.27
2019-03-30T08:30:52.347Z,98300.97
2019-03-30T08:33:20.612Z,98298.91
2019-03-30T08:35:48.871Z,98307.97
2019-03-30T08:38:17.128Z,98304.66
2019-03-30T08:40:45.389Z,98302.61
2019-03-30T08:43:13.668Z,98309.16
2019-03-30T08:45:41.933Z,98311.78
2019-03-30T08:48:10.215Z,98302.45
2019-03-30T08:50:38.470Z,98297.75
2019-03-30T08:53:06.731Z,98300.27
2019-03-30T08:55:35.011Z,98298.59
2019-03-30T08:58:03.256Z,98296.80
2019-03-30T09:00:38.737Z,98292.30
2019-03-30T09:03:07.010Z,98289.50
2019-03-30T09:05:35.384Z,98297.06
2019-03-30T09:08:03.684Z,98290.73
2019-03-30T09:10:31.937Z,98297.98
2019-03-30T09:13:00.198Z,98293.59
2019-03-30T09:15:28.450Z,98292.06
2019-03-30T09:17:56.701Z,98290.80
2019-03-30T09:20:24.964Z,98286.98
2019-03-30T09:22:53.226Z,98273.80
2019-03-30T09:25:21.508Z,98276.11
2019-03-30T09:27:49.794Z,98274.55
2019-03-30T09:30:18.413Z,98269.11
2019-03-30T09:32:46.691Z,98285.94
2019-03-30T09:35:14.930Z,98267.38
2019-03-30T09:37:43.215Z,98261.98
2019-03-30T09:40:11.544Z,98258.88
2019-03-30T09:42:40.105Z,98261.40
2019-03-30T09:45:08.454Z,98250.95
2019-03-30T09:47:36.749Z,98017.23
2019-03-30T09:50:06.964Z,98245.61
2019-03-30T09:52:35.211Z,98245.55
2019-03-30T09:55:03.706Z,98246.97
2019-03-30T09:57:31.952Z,98244.05
2019-03-30T10:00:00.387Z,98245.48
2019-03-30T10:02:28.659Z,98243.47
2019-03-30T10:04:56.924Z,98238.63
2019-03-30T10:07:25.190Z,98237.36
2019-03-30T10:09:53.463Z,98226.38
2019-03-30T10:12:21.724Z,98225.80
2019-03-30T10:14:49.989Z,98226.30
2019-03-30T10:17:18.246Z,98221.11
2019-03-30T10:19:53.057Z,98215.73
2019-03-30T10:22:16.523Z,98214.25
2019-03-30T10:24:44.792Z,98207.09
2019-03-30T10:27:13.080Z,98203.16
2019-03-30T10:29:41.338Z,98201.00
2019-03-30T10:32:09.603Z,98198.66
2019-03-30T10:34:39.594Z,98202.86
2019-03-30T10:37:07.905Z,98198.92
2019-03-30T10:39:36.171Z,98193.88
2019-03-30T10:42:04.419Z,98189.92
2019-03-30T10:44:32.794Z,98193.13
2019-03-30T10:47:01.057Z,98191.36
2019-03-30T10:49:29.300Z,98181.46
2019-03-30T10:51:57.567Z,98186.01
2019-03-30T10:54:25.820Z,98179.49
2019-03-30T10:56:54.109Z,98175.55
2019-03-30T10:59:23.369Z,98175.95
2019-03-30T11:01:51.659Z,98175.45
2019-03-30T11:04:19.924Z,98169.83
2019-03-30T11:06:48.187Z,98161.41
2019-03-30T11:09:16.447Z,98158.32
2019-03-30T11:11:44.804Z,98155.92
2019-03-30T11:14:13.044Z,98146.77
2019-03-30T11:16:41.310Z,98149.68
2019-03-30T11:19:09.567Z,98141.89
2019-03-30T11:21:37.905Z,98139.18
2019-03-30T11:24:06.883Z,98141.98
2019-03-30T11:26:35.394Z,98139.74
2019-03-30T11:29:03.657Z,98138.04
2019-03-30T11:31:31.915Z,98132.45
2019-03-30T11:34:00.198Z,98127.30
2019-03-30T11:36:28.459Z,98130.86
2019-03-30T11:38:56.786Z,98123.34
2019-03-30T11:41:25.200Z,98115.80
2019-03-30T11:43:53.514Z,98117.18
2019-03-30T11:46:21.830Z,98107.73
2019-03-30T11:48:50.094Z,98115.42
2019-03-30T11:51:18.467Z,98108.81
2019-03-30T11:53:46.754Z,98102.10
2019-03-30T11:56:15.019Z,98102.05
2019-03-30T11:58:43.305Z,98096.86
2019-03-30T12:01:15.549Z,98093.88
2019-03-30T12:03:45.514Z,98088.30
2019-03-30T12:06:13.778Z,98085.66
2019-03-30T12:08:42.131Z,98085.60
2019-03-30T12:11:10.400Z,98078.71
2019-03-30T12:13:38.678Z,98079.90
2019-03-30T12:16:06.983Z,98074.47
2019-03-30T12:18:35.318Z,98073.42
2019-03-30T12:21:04.877Z,98070.94
2019-03-30T12:23:33.202Z,98064.09
2019-03-30T12:26:01.458Z,98053.74
2019-03-30T12:28:29.745Z,98056.94
2019-03-30T12:30:58.107Z,98057.30
2019-03-30T12:33:26.415Z,98055.28
2019-03-30T12:35:57.673Z,98051.53
2019-03-30T12:38:28.452Z,98045.89
2019-03-30T12:40:56.738Z,98044.38
2019-03-30T12:43:25.007Z,98036.23
2019-03-30T12:45:53.260Z,98041.02
2019-03-30T12:48:21.556Z,98030.73
2019-03-30T12:50:49.808Z,98030.00
2019-03-30T12:53:18.079Z,98025.05
2019-03-30T12:55:49.367Z,98021.13
2019-03-30T12:58:16.349Z,98022.68
2019-03-30T13:00:44.616Z,98019.16
2019-03-30T13:03:12.867Z,98008.00
2019-03-30T13:05:41.125Z,98009.61
2019-03-30T13:08:09.405Z,98006.09
2019-03-30T13:10:37.691Z,98001.94
2019-03-30T13:13:06.002Z,98002.13
